createdAt,value
2023-04-08T00:02:54.584Z,11.53
2023-04-08T00:07:55.929Z,11.38
2023-04-08T00:12:57.271Z,10.97
2023-04-08T00:17:58.639Z,11.45
2023-04-08T00:22:59.905Z,10.10
2023-04-08T00:28:01.282Z,10.30
2023-04-08T00:33:02.628Z,10.77
2023-04-08T00:38:07.802Z,15.47
2023-04-08T00:43:09.181Z,12.52
2023-04-08T00:48:10.541Z,11.43
2023-04-08T00:53:13.240Z,11.67
2023-04-08T00:58:14.593Z,12.05
2023-04-08T01:03:27.121Z,12.40
2023-04-08T01:08:29.919Z,13.10
2023-04-08T01:13:34.411Z,11.75
2023-04-08T01:18:36.469Z,11.47
2023-04-08T01:23:44.175Z,12.13
2023-04-08T01:28:45.610Z,27.53
2023-04-08T01:33:47.845Z,14.25
2023-04-08T01:38:49.457Z,13.15
2023-04-08T01:43:51.914Z,13.63
2023-04-08T01:48:54.333Z,13.73
2023-04-08T01:53:55.640Z,13.83
2023-04-08T01:58:58.687Z,13.82
2023-04-08T02:04:00.522Z,12.80
2023-04-08T02:09:02.075Z,13.70
2023-04-08T02:14:03.421Z,12.00
2023-04-08T02:19:28.067Z,13.13
2023-04-08T02:24:29.693Z,15.10
2023-04-08T02:29:31.977Z,12.20
2023-04-08T02:34:34.839Z,11.87
2023-04-08T02:39:36.221Z,13.52
2023-04-08T02:44:37.482Z,12.43
2023-04-08T02:49:38.723Z,13.35
2023-04-08T02:54:40.123Z,13.75
2023-04-08T02:59:41.396Z,15.07
2023-04-08T03:04:42.738Z,12.40
2023-04-08T03:09:44.053Z,13.53
2023-04-08T03:14:45.373Z,35.30
2023-04-08T03:19:46.649Z,33.65
2023-04-08T03:24:47.904Z,21.13
2023-04-08T03:29:49.280Z,20.50
2023-04-08T03:34:51.272Z,14.57
2023-04-08T03:39:53.474Z,15.50
2023-04-08T03:44:54.767Z,17.83
2023-04-08T03:49:56.044Z,14.80
2023-04-08T03:54:57.354Z,15.70
2023-04-08T03:59:59.177Z,16.63
2023-04-08T04:05:00.595Z,17.27
2023-04-08T04:10:02.079Z,23.33
2023-04-08T04:15:03.741Z,20.00
2023-04-08T04:20:06.356Z,22.05
2023-04-08T04:25:08.299Z,16.83
2023-04-08T04:30:10.403Z,16.50
2023-04-08T04:35:12.461Z,20.27
2023-04-08T04:40:13.773Z,18.80
2023-04-08T04:45:15.501Z,26.30
2023-04-08T04:50:18.063Z,17.43
2023-04-08T04:55:19.387Z,21.83
2023-04-08T05:00:20.769Z,18.60
2023-04-08T05:05:22.102Z,17.10
2023-04-08T05:10:23.416Z,22.75
2023-04-08T05:15:24.689Z,27.87
2023-04-08T05:20:25.979Z,26.98
2023-04-08T05:25:27.233Z,19.83
2023-04-08T05:30:28.797Z,19.37
2023-04-08T05:35:30.189Z,25.70
2023-04-08T05:40:31.457Z,23.33
2023-04-08T05:45:32.787Z,18.90
2023-04-08T05:50:35.220Z,21.70
2023-04-08T05:55:36.820Z,19.27
2023-04-08T06:00:38.127Z,20.23
2023-04-08T06:05:39.422Z,20.50
2023-04-08T06:10:40.738Z,21.80
2023-04-08T06:15:45.172Z,21.55
2023-04-08T06:20:46.537Z,21.57
2023-04-08T06:25:47.805Z,26.67
2023-04-08T06:30:49.064Z,22.27
2023-04-08T06:35:50.541Z,21.35
2023-04-08T06:40:51.899Z,22.42
2023-04-08T06:45:53.299Z,22.13
2023-04-08T06:50:57.890Z,20.73
2023-04-08T06:55:59.504Z,22.83
2023-04-08T07:01:01.420Z,22.75
2023-04-08T07:06:04.474Z,22.05
2023-04-08T07:11:05.832Z,20.60
2023-04-08T07:16:07.339Z,20.23
2023-04-08T07:21:08.632Z,20.40
2023-04-08T07:26:09.961Z,16.98
2023-04-08T07:31:16.118Z,18.20
2023-04-08T07:36:18.377Z,16.97
2023-04-08T07:41:19.869Z,15.63
2023-04-08T07:46:21.321Z,13.30
2023-04-08T07:51:23.060Z,16.30
2023-04-08T07:56:24.336Z,18.20
2023-04-08T08:01:27.799Z,13.33
2023-04-08T08:06:29.312Z,19.42
2023-04-08T08:11:30.789Z,21.30
2023-04-08T08:16:33.602Z,16.57
2023-04-08T08:21:37.854Z,17.20
2023-04-08T08:26:39.239Z,17.30
2023-04-08T08:31:40.617Z,16.53
2023-04-08T08:36:41.960Z,16.63
2023-04-08T08:41:43.289Z,15.13
2023-04-08T08:46:44.881Z,15.10
2023-04-08T08:51:46.945Z,18.27
2023-04-08T08:56:49.021Z,16.07
2023-04-08T09:01:50.670Z,17.50
2023-04-08T09:07:11.238Z,15.50
2023-04-08T09:12:13.985Z,13.77
2023-04-08T09:17:15.896Z,15.23
2023-04-08T09:22:17.494Z,14.75
2023-04-08T09:27:33.406Z,14.63
2023-04-08T09:32:47.609Z,16.27
2023-04-08T09:37:49.594Z,22.50
2023-04-08T09:42:53.521Z,12.57
2023-04-08T09:48:01.365Z,13.90
2023-04-08T09:53:23.373Z,12.73
2023-04-08T09:58:28.307Z,14.27
2023-04-08T10:03:32.777Z,13.27
2023-04-08T10:08:34.693Z,17.13
2023-04-08T10:13:36.223Z,11.25
2023-04-08T10:18:38.121Z,13.30
2023-04-08T10:23:56.386Z,12.63
2023-04-08T10:29:17.775Z,13.57
2023-04-08T10:34:24.702Z,12.37
2023-04-08T10:39:29.431Z,12.50
2023-04-08T10:44:33.651Z,10.98
2023-04-08T10:49:35.019Z,13.23
2023-04-08T10:54:36.748Z,13.07
2023-04-08T10:59:39.736Z,15.10
2023-04-08T11:04:44.613Z,14.00
2023-04-08T11:09:45.918Z,12.83
2023-04-08T11:14:49.568Z,14.68
2023-04-08T11:19:52.423Z,15.47
2023-04-08T11:24:53.998Z,14.03
2023-04-08T11:29:56.200Z,15.32
2023-04-08T11:34:59.846Z,18.73
2023-04-08T11:40:01.294Z,13.77
2023-04-08T11:45:13.466Z,14.25
2023-04-08T11:50:24.795Z,13.10
2023-04-08T11:55:30.120Z,13.47
2023-04-08T12:00:31.405Z,16.65
2023-04-08T12:05:32.939Z,17.23
2023-04-08T12:10:34.238Z,15.00
2023-04-08T12:15:35.553Z,20.35
2023-04-08T12:20:36.832Z,14.07
2023-04-08T12:25:38.388Z,13.77
2023-04-08T12:30:39.658Z,14.07
2023-04-08T12:35:41.175Z,11.77
2023-04-08T12:40:42.467Z,13.40
2023-04-08T12:45:44.292Z,12.68
2023-04-08T12:50:45.596Z,13.33
2023-04-08T12:55:48.725Z,12.83
2023-04-08T13:00:51.001Z,14.25
2023-04-08T13:05:52.422Z,16.33
2023-04-08T13:10:54.591Z,16.87
2023-04-08T13:15:56.762Z,14.20
2023-04-08T13:20:58.603Z,14.20
2023-04-08T13:26:00.140Z,15.27
2023-04-08T13:31:01.512Z,13.90
2023-04-08T13:36:02.863Z,16.47
2023-04-08T13:41:04.307Z,14.83
2023-04-08T13:46:05.794Z,11.90
2023-04-08T13:51:07.377Z,12.97
2023-04-08T13:56:08.801Z,14.27
2023-04-08T14:01:10.122Z,13.00
2023-04-08T14:06:11.528Z,11.77
2023-04-08T14:11:12.962Z,14.63
2023-04-08T14:16:14.291Z,11.90
2023-04-08T14:21:18.130Z,12.10
2023-04-08T14:26:19.460Z,10.85
2023-04-08T14:31:21.129Z,10.70
2023-04-08T14:36:24.211Z,10.37
2023-04-08T14:41:28.309Z,14.73
2023-04-08T14:46:29.993Z,9.90
2023-04-08T14:51:31.830Z,13.57
2023-04-08T14:56:35.246Z,11.55
2023-04-08T15:01:36.733Z,10.80
2023-04-08T15:06:39.012Z,11.07
2023-04-08T15:11:40.317Z,10.50
2023-04-08T15:16:41.596Z,10.43
2023-04-08T15:21:42.865Z,11.13
2023-04-08T15:26:44.731Z,11.38
2023-04-08T15:31:46.280Z,13.30
2023-04-08T15:36:47.693Z,10.95
2023-04-08T15:41:49.063Z,14.88
2023-04-08T15:46:50.435Z,16.30
2023-04-08T15:51:53.558Z,11.15
2023-04-08T15:56:54.862Z,11.98
2023-04-08T16:01:56.534Z,11.27
2023-04-08T16:06:58.036Z,9.57
2023-04-08T16:11:59.904Z,14.30
2023-04-08T16:17:01.324Z,24.87
2023-04-08T16:22:02.826Z,21.45
2023-04-08T16:27:04.547Z,21.03
2023-04-08T16:32:06.534Z,10.97
2023-04-08T16:37:07.860Z,15.95
2023-04-08T16:42:09.443Z,15.07
2023-04-08T16:47:10.802Z,11.73
2023-04-08T16:52:12.107Z,9.98
2023-04-08T16:57:13.456Z,12.30
2023-04-08T17:02:14.906Z,9.95
2023-04-08T17:07:16.940Z,10.73
2023-04-08T17:12:18.444Z,11.80
2023-04-08T17:17:19.760Z,16.13
2023-04-08T17:22:21.493Z,11.67
2023-04-08T17:27:23.297Z,9.50
2023-04-08T17:32:25.166Z,10.90
2023-04-08T17:37:26.502Z,10.50
2023-04-08T17:42:27.885Z,9.00
2023-04-08T17:47:29.214Z,8.38
2023-04-08T17:52:30.582Z,8.03
2023-04-08T17:57:32.325Z,9.13
2023-04-08T18:02:33.899Z,12.00
2023-04-08T18:07:36.022Z,9.70
2023-04-08T18:12:37.488Z,9.68
2023-04-08T18:17:38.803Z,8.57
2023-04-08T18:22:40.125Z,9.48
2023-04-08T18:27:41.394Z,12.00
2023-04-08T18:32:42.760Z,10.00
2023-04-08T18:37:44.106Z,11.25
2023-04-08T18:42:45.438Z,9.13
2023-04-08T18:47:46.736Z,9.88
2023-04-08T18:52:48.101Z,10.98
2023-04-08T18:57:49.397Z,10.97
2023-04-08T19:02:51.000Z,17.00
2023-04-08T19:07:53.060Z,13.60
2023-04-08T19:12:54.357Z,16.17
2023-04-08T19:17:56.433Z,12.35
2023-04-08T19:22:57.982Z,12.13
2023-04-08T19:27:59.374Z,10.65
2023-04-08T19:33:01.515Z,9.27
2023-04-08T19:38:03.396Z,10.23
2023-04-08T19:43:05.052Z,8.85
2023-04-08T19:48:07.530Z,8.10
2023-04-08T19:53:08.817Z,10.63
2023-04-08T19:58:10.750Z,11.03
2023-04-08T20:03:13.851Z,11.50
2023-04-08T20:08:15.705Z,8.80
2023-04-08T20:13:17.076Z,9.50
2023-04-08T20:18:18.508Z,10.65
2023-04-08T20:23:20.096Z,9.80
2023-04-08T20:28:21.476Z,9.15
2023-04-08T20:33:22.797Z,9.10
2023-04-08T20:38:24.880Z,7.37
2023-04-08T20:43:26.214Z,9.05
2023-04-08T20:48:29.402Z,9.23
2023-04-08T20:53:31.495Z,8.27
2023-04-08T20:58:32.798Z,9.15
2023-04-08T21:03:34.310Z,16.97
2023-04-08T21:08:35.671Z,7.30
2023-04-08T21:13:37.086Z,8.53
2023-04-08T21:18:39.118Z,11.00
2023-04-08T21:23:40.438Z,8.48
2023-04-08T21:28:41.817Z,9.07
2023-04-08T21:33:43.203Z,9.73
2023-04-08T21:38:44.599Z,9.27
2023-04-08T21:43:46.838Z,10.57
2023-04-08T21:48:48.163Z,11.05
2023-04-08T21:53:50.180Z,8.90
2023-04-08T21:58:52.360Z,10.40
2023-04-08T22:03:55.358Z,9.27
2023-04-08T22:08:56.912Z,8.93
2023-04-08T22:13:58.272Z,9.13
2023-04-08T22:18:59.574Z,9.17
2023-04-08T22:24:00.998Z,10.73
2023-04-08T22:29:02.306Z,8.93
2023-04-08T22:34:03.580Z,10.45
2023-04-08T22:39:04.917Z,10.57
2023-04-08T22:44:06.384Z,10.70
2023-04-08T22:49:07.645Z,9.20
2023-04-08T22:54:08.992Z,9.20
2023-04-08T22:59:10.377Z,9.18
2023-04-08T23:04:11.703Z,9.48
2023-04-08T23:09:13.025Z,10.07
2023-04-08T23:14:14.586Z,10.13
2023-04-08T23:19:15.967Z,11.97
2023-04-08T23:24:17.267Z,10.18
2023-04-08T23:29:18.808Z,9.60
2023-04-08T23:34:20.222Z,8.17
2023-04-08T23:39:21.543Z,11.10
2023-04-08T23:44:22.937Z,9.67
2023-04-08T23:49:24.210Z,10.40
2023-04-08T23:54:25.699Z,9.38
2023-04-08T23:59:28.765Z,10.13
